createdAt,value
2016-07-26T00:00:07.381Z,997.03
2016-07-26T00:01:07.389Z,997.04
2016-07-26T00:02:07.401Z,997.07
2016-07-26T00:03:07.410Z,997.06
2016-07-26T00:04:07.421Z,997.09
2016-07-26T00:05:07.430Z,997.07
2016-07-26T00:06:07.441Z,997.04
2016-07-26T00:07:07.653Z,997.05
2016-07-26T00:08:07.460Z,997.06
2016-07-26T00:09:07.473Z,997.04
2016-07-26T00:10:07.485Z,997.07
2016-07-26T00:11:07.491Z,997.06
2016-07-26T00:12:07.500Z,997.05
2016-07-26T00:13:07.713Z,997.07
2016-07-26T00:14:07.525Z,997.06
2016-07-26T00:15:07.534Z,997.11
2016-07-26T00:16:07.540Z,997.09
2016-07-26T00:17:07.551Z,997.1
2016-07-26T00:18:07.764Z,997.09
2016-07-26T00:19:07.572Z,997.12
2016-07-26T00:20:07.582Z,997.07
2016-07-26T00:21:07.591Z,997.08
2016-07-26T00:22:07.604Z,997.05
2016-07-26T00:24:07.631Z,997.06
2016-07-26T00:25:07.633Z,997.05
2016-07-26T00:26:07.641Z,997.05
2016-07-26T00:27:07.652Z,997.06
2016-07-26T00:28:07.663Z,997.04
2016-07-26T00:29:07.672Z,997.04
2016-07-26T00:30:07.682Z,997.05
2016-07-26T00:31:07.691Z,997.04
2016-07-26T00:32:07.708Z,997.04
2016-07-26T00:33:07.722Z,997.09
2016-07-26T00:34:07.724Z,997.06
2016-07-26T00:35:07.730Z,997.06
2016-07-26T00:36:07.743Z,997.07
2016-07-26T00:37:07.750Z,997.07
2016-07-26T00:38:07.760Z,997.09
2016-07-26T00:39:07.769Z,997.06
2016-07-26T00:40:07.781Z,997.06
2016-07-26T00:41:07.791Z,997.07
2016-07-26T00:42:08.001Z,997.05
2016-07-26T00:43:07.809Z,997.02
2016-07-26T00:44:07.818Z,997.03
2016-07-26T00:45:07.828Z,997.01
2016-07-26T00:46:07.842Z,997.01
2016-07-26T00:47:07.857Z,997.04
2016-07-26T00:48:07.862Z,997.01
2016-07-26T00:49:07.891Z,997
2016-07-26T00:50:07.885Z,997.03
2016-07-26T00:51:08.090Z,997.04
2016-07-26T00:52:07.898Z,997.04
2016-07-26T00:53:07.904Z,997.03
2016-07-26T00:54:07.917Z,997.1
2016-07-26T00:55:07.926Z,997.08
2016-07-26T00:56:07.936Z,997.05
2016-07-26T00:57:07.945Z,997.05
2016-07-26T00:58:07.965Z,997.04
2016-07-26T00:59:07.966Z,997.06
2016-07-26T01:00:07.973Z,997.07
2016-07-26T01:01:07.995Z,997.04
2016-07-26T01:02:07.993Z,997.07
2016-07-26T01:03:08.003Z,997.06
2016-07-26T01:04:08.012Z,997.11
2016-07-26T01:06:08.031Z,997.09
2016-07-26T01:07:08.041Z,997.12
2016-07-26T01:08:08.056Z,997.11
2016-07-26T01:09:08.059Z,997.09
2016-07-26T01:10:08.274Z,997.1
2016-07-26T01:11:08.078Z,997.09
2016-07-26T01:12:08.088Z,997.1
2016-07-26T01:13:08.098Z,997.1
2016-07-26T01:14:08.107Z,997.1
2016-07-26T01:15:08.119Z,997.12
2016-07-26T01:16:08.127Z,997.1
2016-07-26T01:17:08.139Z,997.11
2016-07-26T01:18:08.380Z,997.06
2016-07-26T01:19:08.202Z,997.11
2016-07-26T01:20:08.167Z,997.1
2016-07-26T01:21:08.178Z,997.09
2016-07-26T01:22:08.185Z,997.09
2016-07-26T01:23:08.623Z,997.1
2016-07-26T01:24:08.206Z,997.1
2016-07-26T01:25:08.415Z,997.12
2016-07-26T01:26:08.228Z,997.13
2016-07-26T01:27:08.235Z,997.17
2016-07-26T01:28:08.242Z,997.14
2016-07-26T01:29:08.262Z,997.15
2016-07-26T01:30:08.469Z,997.15
2016-07-26T01:31:08.273Z,997.12
2016-07-26T01:32:08.281Z,997.12
2016-07-26T01:33:08.289Z,997.11
2016-07-26T01:34:08.300Z,997.09
2016-07-26T01:35:08.311Z,997.09
2016-07-26T01:36:08.318Z,997.08
2016-07-26T01:37:08.329Z,997.06
2016-07-26T01:38:08.340Z,997.09
2016-07-26T01:39:08.348Z,997.08
2016-07-26T01:40:08.561Z,997.07
2016-07-26T01:41:08.375Z,997.11
2016-07-26T01:42:08.379Z,997.13
2016-07-26T01:43:08.388Z,997.15
2016-07-26T01:44:08.397Z,997.2
2016-07-26T01:45:08.408Z,997.19
2016-07-26T01:46:08.418Z,997.19
2016-07-26T01:47:08.425Z,997.11
2016-07-26T01:48:08.433Z,997.09
2016-07-26T01:49:08.443Z,997.05
2016-07-26T01:50:08.454Z,997.04
2016-07-26T01:51:08.462Z,997.04
2016-07-26T01:52:08.473Z,997.05
2016-07-26T01:53:08.489Z,997.05
2016-07-26T01:54:08.501Z,997.06
2016-07-26T01:55:08.502Z,997.06
2016-07-26T01:56:08.510Z,997.07
2016-07-26T01:57:08.539Z,997.08
2016-07-26T01:58:08.527Z,997.06
2016-07-26T01:59:08.541Z,997.06
2016-07-26T02:00:08.548Z,997.05
2016-07-26T02:01:08.563Z,997.09
2016-07-26T02:02:08.568Z,997.06
2016-07-26T02:03:08.598Z,997.11
2016-07-26T02:04:08.585Z,997.07
2016-07-26T02:05:08.596Z,997.02
2016-07-26T02:06:08.607Z,997.06
2016-07-26T02:07:08.620Z,997.02
2016-07-26T02:08:08.629Z,997.02
2016-07-26T02:09:08.634Z,997.02
2016-07-26T02:10:08.645Z,997.02
2016-07-26T02:11:08.652Z,996.96
2016-07-26T02:12:08.663Z,996.97
2016-07-26T02:13:08.676Z,996.98
2016-07-26T02:14:08.680Z,996.99
2016-07-26T02:15:08.690Z,997.06
2016-07-26T02:16:08.702Z,997.06
2016-07-26T02:17:08.708Z,997.08
2016-07-26T02:18:08.718Z,997.02
2016-07-26T02:19:08.736Z,997.04
2016-07-26T02:20:08.738Z,997.02
2016-07-26T02:21:08.748Z,997.04
2016-07-26T02:22:08.757Z,997.04
2016-07-26T02:23:08.771Z,996.99
2016-07-26T02:24:08.774Z,996.99
2016-07-26T02:25:08.791Z,996.98
2016-07-26T02:26:08.800Z,996.95
2016-07-26T02:27:08.802Z,996.93
2016-07-26T02:28:08.824Z,996.95
2016-07-26T02:29:08.835Z,996.94
2016-07-26T02:30:08.834Z,996.87
2016-07-26T02:31:08.839Z,996.95
2016-07-26T02:32:08.855Z,996.94
2016-07-26T02:33:08.861Z,996.94
2016-07-26T02:34:08.869Z,996.98
2016-07-26T02:35:08.883Z,997.01
2016-07-26T02:36:08.886Z,996.98
2016-07-26T02:37:09.104Z,996.99
2016-07-26T02:38:08.907Z,996.98
2016-07-26T02:39:08.917Z,996.95
2016-07-26T02:40:08.925Z,996.97
2016-07-26T02:41:08.934Z,996.95
2016-07-26T02:42:09.165Z,996.95
2016-07-26T02:43:08.952Z,996.95
2016-07-26T02:44:08.962Z,996.94
2016-07-26T02:45:08.971Z,996.95
2016-07-26T02:46:08.987Z,996.94
2016-07-26T02:47:09.003Z,996.91
2016-07-26T02:48:08.999Z,996.93
2016-07-26T02:49:09.222Z,996.92
2016-07-26T02:50:09.028Z,996.95
2016-07-26T02:51:09.257Z,996.92
2016-07-26T02:52:09.038Z,996.93
2016-07-26T02:53:09.272Z,996.93
2016-07-26T02:54:09.056Z,996.93
2016-07-26T02:55:09.319Z,996.9
2016-07-26T02:56:09.074Z,996.91
2016-07-26T02:57:09.085Z,996.91
2016-07-26T02:58:09.297Z,996.94
2016-07-26T02:59:09.106Z,996.95
2016-07-26T03:00:09.113Z,996.95
2016-07-26T03:01:09.123Z,996.97
2016-07-26T03:02:09.135Z,996.96
2016-07-26T03:03:09.141Z,997
2016-07-26T03:04:09.355Z,996.97
2016-07-26T03:05:09.158Z,996.99
2016-07-26T03:06:09.172Z,996.95
2016-07-26T03:07:09.184Z,996.97
2016-07-26T03:08:09.190Z,996.97
2016-07-26T03:09:09.198Z,996.94
2016-07-26T03:10:09.209Z,996.93
2016-07-26T03:11:09.216Z,996.94
2016-07-26T03:12:09.242Z,996.97
2016-07-26T03:13:09.237Z,996.98
2016-07-26T03:14:09.247Z,997.02
2016-07-26T03:15:09.253Z,997
2016-07-26T03:16:09.267Z,997.01
2016-07-26T03:17:09.276Z,997.03
2016-07-26T03:18:09.286Z,997.04
2016-07-26T03:19:09.497Z,997.07
2016-07-26T03:20:09.301Z,997.13
2016-07-26T03:21:09.311Z,997.12
2016-07-26T03:22:09.522Z,997.13
2016-07-26T03:23:09.329Z,997.14
2016-07-26T03:24:09.541Z,997.14
2016-07-26T03:25:09.359Z,997.16
2016-07-26T03:26:09.358Z,997.18
2016-07-26T03:27:09.376Z,997.12
2016-07-26T03:28:09.378Z,997.12
2016-07-26T03:29:09.388Z,997.14
2016-07-26T03:30:09.394Z,997.15
2016-07-26T03:31:09.404Z,997.2
2016-07-26T03:32:09.415Z,997.17
2016-07-26T03:33:09.425Z,997.19
2016-07-26T03:34:09.435Z,997.24
2016-07-26T03:35:09.442Z,997.22
2016-07-26T03:36:09.454Z,997.23
2016-07-26T03:37:09.474Z,997.22
2016-07-26T03:38:09.471Z,997.2
2016-07-26T03:39:09.484Z,997.2
2016-07-26T03:40:09.489Z,997.21
2016-07-26T03:41:09.498Z,997.23
2016-07-26T03:42:09.514Z,997.22
2016-07-26T03:43:09.518Z,997.27
2016-07-26T03:44:09.525Z,997.31
2016-07-26T03:45:09.535Z,997.3
2016-07-26T03:46:09.546Z,997.31
2016-07-26T03:47:09.554Z,997.31
2016-07-26T03:48:09.564Z,997.29
2016-07-26T03:49:09.573Z,997.32
2016-07-26T03:50:09.587Z,997.31
2016-07-26T03:51:09.592Z,997.31
2016-07-26T03:52:09.602Z,997.26
2016-07-26T03:53:09.614Z,997.29
2016-07-26T03:54:09.620Z,997.32
2016-07-26T03:55:09.628Z,997.33
2016-07-26T03:56:09.640Z,997.31
2016-07-26T03:57:09.660Z,997.32
2016-07-26T03:58:09.657Z,997.33
2016-07-26T03:59:09.666Z,997.38
2016-07-26T04:00:09.676Z,997.34
2016-07-26T04:01:09.685Z,997.32
2016-07-26T04:02:09.695Z,997.36
2016-07-26T04:03:09.704Z,997.31
2016-07-26T04:04:09.716Z,997.33
2016-07-26T04:05:09.723Z,997.32
2016-07-26T04:06:09.734Z,997.28
2016-07-26T04:07:09.744Z,997.34
2016-07-26T04:08:09.752Z,997.34
2016-07-26T04:09:09.771Z,997.36
2016-07-26T04:10:09.772Z,997.33
2016-07-26T04:11:09.780Z,997.33
2016-07-26T04:12:09.791Z,997.38
2016-07-26T04:13:09.804Z,997.37
2016-07-26T04:14:09.809Z,997.38
2016-07-26T04:15:09.842Z,997.38
2016-07-26T04:16:09.927Z,997.41
2016-07-26T04:17:09.838Z,997.39
2016-07-26T04:18:09.849Z,997.4
2016-07-26T04:19:09.861Z,997.48
2016-07-26T04:20:09.868Z,997.44
2016-07-26T04:21:09.876Z,997.46
2016-07-26T04:22:09.889Z,997.46
2016-07-26T04:23:09.901Z,997.43
2016-07-26T04:24:10.138Z,997.4
2016-07-26T04:25:09.924Z,997.42
2016-07-26T04:26:09.928Z,997.41
2016-07-26T04:27:09.936Z,997.41
2016-07-26T04:28:09.944Z,997.42
2016-07-26T04:29:09.965Z,997.43
2016-07-26T04:30:09.965Z,997.44
2016-07-26T04:31:09.976Z,997.47
2016-07-26T04:32:09.983Z,997.5
2016-07-26T04:33:09.995Z,997.52
2016-07-26T04:34:10.006Z,997.54
2016-07-26T04:35:10.023Z,997.52
2016-07-26T04:36:10.024Z,997.55
2016-07-26T04:37:10.032Z,997.54
2016-07-26T04:38:10.047Z,997.54
2016-07-26T04:39:10.052Z,997.56
2016-07-26T04:40:10.062Z,997.57
2016-07-26T04:42:10.081Z,997.52
2016-07-26T04:43:10.092Z,997.57
2016-07-26T04:44:10.102Z,997.57
2016-07-26T04:45:10.114Z,997.58
2016-07-26T04:46:10.124Z,997.6
2016-07-26T04:47:10.132Z,997.56
2016-07-26T04:48:10.142Z,997.56
2016-07-26T04:49:10.153Z,997.61
2016-07-26T04:50:10.161Z,997.61
2016-07-26T04:51:10.172Z,997.65
2016-07-26T04:52:10.191Z,997.64
2016-07-26T04:53:10.193Z,997.65
2016-07-26T04:54:10.202Z,997.68
2016-07-26T04:55:10.262Z,997.66
2016-07-26T04:56:10.222Z,997.67
2016-07-26T04:57:10.233Z,997.69
2016-07-26T04:58:10.244Z,997.7
2016-07-26T04:59:10.254Z,997.72
2016-07-26T05:00:10.265Z,997.72
2016-07-26T05:01:10.499Z,997.72
2016-07-26T05:02:10.299Z,997.73
2016-07-26T05:03:10.308Z,997.75
2016-07-26T05:04:10.302Z,997.73
2016-07-26T05:05:10.316Z,997.8
2016-07-26T05:06:10.334Z,997.75
2016-07-26T05:07:10.528Z,997.77
2016-07-26T05:08:10.344Z,997.8
2016-07-26T05:09:10.389Z,997.79
2016-07-26T05:10:10.365Z,997.82
2016-07-26T05:11:10.374Z,997.84
2016-07-26T05:12:10.383Z,997.87
2016-07-26T05:13:10.394Z,997.86
2016-07-26T05:14:10.407Z,997.87
2016-07-26T05:15:10.417Z,997.93
2016-07-26T05:16:10.628Z,997.91
2016-07-26T05:17:10.467Z,997.92
2016-07-26T05:18:10.448Z,997.94
2016-07-26T05:19:10.660Z,997.99
2016-07-26T05:20:10.468Z,998
2016-07-26T05:22:10.491Z,997.97
2016-07-26T05:23:10.500Z,997.95
2016-07-26T05:24:10.516Z,997.96
2016-07-26T05:25:10.522Z,997.96
2016-07-26T05:27:10.543Z,998.01
2016-07-26T05:28:10.571Z,997.98
2016-07-26T05:29:10.578Z,998.01
2016-07-26T05:30:10.580Z,997.95
2016-07-26T05:31:10.587Z,997.96
2016-07-26T05:32:10.599Z,998.01
2016-07-26T05:33:10.621Z,997.99
2016-07-26T05:34:10.621Z,997.99
2016-07-26T05:36:10.643Z,997.98
2016-07-26T05:37:10.672Z,998.02
2016-07-26T05:38:10.673Z,998
2016-07-26T05:39:10.681Z,998.01
2016-07-26T05:40:10.693Z,998
2016-07-26T05:41:10.697Z,998
2016-07-26T05:42:10.713Z,998.01
2016-07-26T05:43:10.720Z,998
2016-07-26T05:44:10.729Z,998.03
2016-07-26T05:45:10.741Z,998
2016-07-26T05:46:10.757Z,997.96
2016-07-26T05:47:10.967Z,997.99
2016-07-26T05:48:10.782Z,998.01
2016-07-26T05:49:10.788Z,997.99
2016-07-26T05:50:10.799Z,998
2016-07-26T05:51:10.810Z,998.04
2016-07-26T05:52:10.824Z,998.05
2016-07-26T05:53:10.836Z,998.1
2016-07-26T05:54:10.869Z,998.1
2016-07-26T05:55:10.857Z,998.12
2016-07-26T05:56:10.870Z,998.16
2016-07-26T05:57:10.881Z,998.22
2016-07-26T05:58:10.899Z,998.25
2016-07-26T05:59:11.106Z,998.27
2016-07-26T06:00:11.119Z,998.28
2016-07-26T06:01:10.929Z,998.28
2016-07-26T06:02:10.943Z,998.27
2016-07-26T06:03:10.978Z,998.25
2016-07-26T06:04:10.964Z,998.27
2016-07-26T06:05:10.976Z,998.3
2016-07-26T06:06:10.991Z,998.32
2016-07-26T06:07:11.000Z,998.29
2016-07-26T06:08:11.015Z,998.32
2016-07-26T06:09:11.025Z,998.33
2016-07-26T06:10:11.057Z,998.38
2016-07-26T06:11:11.049Z,998.39
2016-07-26T06:12:11.060Z,998.44
2016-07-26T06:14:11.097Z,998.48
2016-07-26T06:15:11.102Z,998.45
2016-07-26T06:16:11.118Z,998.53
2016-07-26T06:17:11.122Z,998.52
2016-07-26T06:18:11.132Z,998.55
2016-07-26T06:19:11.147Z,998.54
2016-07-26T06:20:11.158Z,998.58
2016-07-26T06:21:11.173Z,998.5
2016-07-26T06:22:11.182Z,998.51
2016-07-26T06:23:11.196Z,998.53
2016-07-26T06:25:11.430Z,998.54
2016-07-26T06:26:11.272Z,998.55
2016-07-26T06:27:11.256Z,998.51
2016-07-26T06:28:11.261Z,998.53
2016-07-26T06:29:11.272Z,998.55
2016-07-26T06:30:11.284Z,998.54
2016-07-26T06:31:11.299Z,998.56
2016-07-26T06:32:11.311Z,998.57
2016-07-26T06:33:11.323Z,998.59
2016-07-26T06:34:11.335Z,998.58
2016-07-26T06:35:11.354Z,998.59
2016-07-26T06:36:11.381Z,998.6
2016-07-26T06:37:11.377Z,998.62
2016-07-26T06:38:11.388Z,998.62
2016-07-26T06:39:11.402Z,998.65
2016-07-26T06:40:11.616Z,998.67
2016-07-26T06:41:11.429Z,998.67
2016-07-26T06:42:11.453Z,998.63
2016-07-26T06:43:11.451Z,998.66
2016-07-26T06:44:11.690Z,998.65
2016-07-26T06:45:11.493Z,998.65
2016-07-26T06:46:11.499Z,998.64
2016-07-26T06:47:11.673Z,998.67
2016-07-26T06:48:11.518Z,998.67
2016-07-26T06:49:11.532Z,998.69
2016-07-26T06:51:11.580Z,998.65
2016-07-26T06:52:11.581Z,998.64
2016-07-26T06:53:11.859Z,998.63
2016-07-26T06:54:11.596Z,998.59
2016-07-26T06:55:11.610Z,998.62
2016-07-26T06:56:11.625Z,998.6
2016-07-26T06:57:11.638Z,998.61
2016-07-26T06:58:11.651Z,998.69
2016-07-26T06:59:11.767Z,998.67
2016-07-26T07:00:11.677Z,998.66
2016-07-26T07:01:11.694Z,998.66
2016-07-26T07:02:11.703Z,998.65
2016-07-26T07:03:11.728Z,998.65
2016-07-26T07:04:11.734Z,998.67
2016-07-26T07:05:11.742Z,998.64
2016-07-26T07:06:11.757Z,998.63
2016-07-26T07:07:11.770Z,998.63
2016-07-26T07:08:11.783Z,998.66
2016-07-26T07:09:11.797Z,998.66
2016-07-26T07:10:11.809Z,998.62
2016-07-26T07:11:11.822Z,998.62
2016-07-26T07:12:11.836Z,998.62
2016-07-26T07:13:11.873Z,998.62
2016-07-26T07:14:11.862Z,998.61
2016-07-26T07:15:11.876Z,998.63
2016-07-26T07:16:11.888Z,998.61
2016-07-26T07:17:11.904Z,998.62
2016-07-26T07:18:11.915Z,998.59
2016-07-26T07:19:11.929Z,998.58
2016-07-26T07:20:11.942Z,998.52
2016-07-26T07:21:11.973Z,998.57
2016-07-26T07:22:11.980Z,998.58
2016-07-26T07:23:12.210Z,998.56
2016-07-26T07:24:12.007Z,998.59
2016-07-26T07:25:12.016Z,998.62
2016-07-26T07:26:12.226Z,998.65
2016-07-26T07:27:12.036Z,998.69
2016-07-26T07:28:12.059Z,998.72
2016-07-26T07:29:12.271Z,998.74
2016-07-26T07:30:12.078Z,998.74
2016-07-26T07:31:12.090Z,998.75
2016-07-26T07:32:12.104Z,998.75
2016-07-26T07:33:12.124Z,998.72
2016-07-26T07:34:12.130Z,998.72
2016-07-26T07:35:12.146Z,998.72
2016-07-26T07:36:12.161Z,998.74
2016-07-26T07:37:12.245Z,998.77
2016-07-26T07:38:12.202Z,998.85
2016-07-26T07:39:12.229Z,998.83
2016-07-26T07:40:12.229Z,998.86
2016-07-26T07:41:12.233Z,998.85
2016-07-26T07:42:12.252Z,998.89
2016-07-26T07:43:12.257Z,998.86
2016-07-26T07:44:12.270Z,998.88
2016-07-26T07:45:12.287Z,998.87
2016-07-26T07:46:12.301Z,998.87
2016-07-26T07:47:12.314Z,998.86
2016-07-26T07:48:12.330Z,998.88
2016-07-26T07:49:12.341Z,998.83
2016-07-26T07:50:12.356Z,998.82
2016-07-26T07:51:12.370Z,998.78
2016-07-26T07:52:12.385Z,998.8
2016-07-26T07:53:12.427Z,998.79
2016-07-26T07:54:12.414Z,998.82
2016-07-26T07:55:12.477Z,998.83
2016-07-26T07:56:12.454Z,998.86
2016-07-26T07:57:12.461Z,998.86
2016-07-26T07:58:12.675Z,998.88
2016-07-26T07:59:12.485Z,998.86
2016-07-26T08:00:12.501Z,998.86
2016-07-26T08:01:12.717Z,998.91
2016-07-26T08:02:12.530Z,998.95
2016-07-26T08:03:12.545Z,998.94
2016-07-26T08:04:12.563Z,998.91
2016-07-26T08:05:12.574Z,998.91
2016-07-26T08:06:12.589Z,998.9
2016-07-26T08:07:12.620Z,998.92
2016-07-26T08:08:12.616Z,998.91
2016-07-26T08:09:12.639Z,998.89
2016-07-26T08:10:12.646Z,998.87
2016-07-26T08:11:12.662Z,998.93
2016-07-26T08:12:12.680Z,998.9
2016-07-26T08:13:12.694Z,998.93
2016-07-26T08:14:12.719Z,998.97
2016-07-26T08:15:12.723Z,998.92
2016-07-26T08:16:12.736Z,998.93
2016-07-26T08:17:12.754Z,998.96
2016-07-26T08:18:12.768Z,998.93
2016-07-26T08:19:12.781Z,998.92
2016-07-26T08:20:12.999Z,998.94
2016-07-26T08:21:12.816Z,998.97
2016-07-26T08:22:12.828Z,998.94
2016-07-26T08:23:12.842Z,998.94
2016-07-26T08:24:12.859Z,998.95
2016-07-26T08:25:12.877Z,998.94
2016-07-26T08:26:12.889Z,998.96
2016-07-26T08:27:12.905Z,998.96
2016-07-26T08:28:12.918Z,998.98
2016-07-26T08:29:12.933Z,998.95
2016-07-26T08:30:12.950Z,998.94
2016-07-26T08:31:12.963Z,998.92
2016-07-26T08:32:12.979Z,998.93
2016-07-26T08:33:13.200Z,998.94
2016-07-26T08:34:13.015Z,998.91
2016-07-26T08:35:13.046Z,998.92
2016-07-26T08:36:13.046Z,998.87
2016-07-26T08:37:13.055Z,998.85
2016-07-26T08:38:13.072Z,998.82
2016-07-26T08:39:13.088Z,998.78
2016-07-26T08:40:13.102Z,998.74
2016-07-26T08:41:13.116Z,998.77
2016-07-26T08:42:13.135Z,998.77
2016-07-26T08:43:13.147Z,998.75
2016-07-26T08:44:13.165Z,998.78
2016-07-26T08:45:13.178Z,998.76
2016-07-26T08:46:13.195Z,998.76
2016-07-26T08:47:13.213Z,998.77
2016-07-26T08:48:13.244Z,998.76
2016-07-26T08:49:13.246Z,998.76
2016-07-26T08:50:13.254Z,998.78
2016-07-26T08:51:13.470Z,998.79
2016-07-26T08:52:13.286Z,998.78
2016-07-26T08:53:13.318Z,998.81
2016-07-26T08:54:13.312Z,998.8
2016-07-26T08:55:13.429Z,998.81
2016-07-26T08:56:13.454Z,998.84
2016-07-26T08:57:13.361Z,998.85
2016-07-26T08:58:13.387Z,998.84
2016-07-26T08:59:13.397Z,998.86
2016-07-26T09:00:13.406Z,998.89
2016-07-26T09:01:13.423Z,998.86
2016-07-26T09:02:13.456Z,998.86
2016-07-26T09:03:13.450Z,998.86
2016-07-26T09:04:13.467Z,998.84
2016-07-26T09:05:13.482Z,998.88
2016-07-26T09:06:13.496Z,998.89
2016-07-26T09:07:13.512Z,998.89
2016-07-26T09:08:13.527Z,998.94
2016-07-26T09:09:13.543Z,998.96
2016-07-26T09:10:13.586Z,999
2016-07-26T09:11:13.576Z,999.01
2016-07-26T09:12:13.588Z,999.07
2016-07-26T09:13:13.604Z,999.08
2016-07-26T09:14:13.621Z,999.03
2016-07-26T09:15:13.645Z,999.01
2016-07-26T09:16:13.657Z,999.05
2016-07-26T09:17:13.665Z,999.02
2016-07-26T09:18:13.686Z,999.04
2016-07-26T09:19:13.700Z,999.03
2016-07-26T09:20:13.711Z,999.04
2016-07-26T09:21:13.729Z,999.05
2016-07-26T09:22:13.746Z,999.06
2016-07-26T09:23:13.775Z,999.08
2016-07-26T09:24:13.786Z,999.1
2016-07-26T09:25:13.792Z,999.12
2016-07-26T09:26:13.810Z,999.09
2016-07-26T09:27:14.026Z,999.11
2016-07-26T09:28:13.842Z,999.07
2016-07-26T09:29:13.858Z,999.08
2016-07-26T09:30:13.870Z,999.06
2016-07-26T09:31:13.884Z,999.02
2016-07-26T09:32:13.904Z,999.02
2016-07-26T09:33:13.916Z,999.02
2016-07-26T09:34:13.933Z,999.04
2016-07-26T09:35:13.949Z,999.01
2016-07-26T09:36:13.968Z,999
2016-07-26T09:37:13.981Z,998.94
2016-07-26T09:38:13.997Z,998.98
2016-07-26T09:39:14.011Z,998.95
2016-07-26T09:40:14.232Z,998.95
2016-07-26T09:41:14.060Z,998.94
2016-07-26T09:42:14.059Z,998.94
2016-07-26T09:43:14.076Z,998.94
2016-07-26T09:44:14.091Z,998.96
2016-07-26T09:45:14.109Z,998.96
2016-07-26T09:46:14.124Z,998.94
2016-07-26T09:47:14.161Z,998.99
2016-07-26T09:48:14.160Z,998.99
2016-07-26T09:49:14.170Z,998.98
2016-07-26T09:50:14.194Z,998.96
2016-07-26T09:51:14.204Z,998.98
2016-07-26T09:52:14.219Z,998.97
2016-07-26T09:53:14.243Z,998.95
2016-07-26T09:54:14.249Z,998.99
2016-07-26T09:55:14.268Z,998.95
2016-07-26T09:56:14.290Z,998.95
2016-07-26T09:57:14.500Z,998.9
2016-07-26T09:58:14.313Z,998.93
2016-07-26T09:59:14.335Z,998.94
2016-07-26T10:00:14.346Z,999.01
2016-07-26T10:01:14.361Z,998.98
2016-07-26T10:02:14.377Z,999
2016-07-26T10:03:14.393Z,998.92
2016-07-26T10:05:14.440Z,998.9
2016-07-26T10:06:14.446Z,998.93
2016-07-26T10:08:14.473Z,998.87
2016-07-26T10:09:14.490Z,998.88
2016-07-26T10:10:14.518Z,998.87
2016-07-26T10:11:14.523Z,998.86
2016-07-26T10:12:14.539Z,998.86
2016-07-26T10:13:14.554Z,998.82
2016-07-26T10:14:14.573Z,998.85
2016-07-26T10:15:14.586Z,998.86
2016-07-26T10:17:14.628Z,998.85
2016-07-26T10:18:14.636Z,998.84
2016-07-26T10:19:14.760Z,998.83
2016-07-26T10:20:14.872Z,998.82
2016-07-26T10:21:14.701Z,998.83
2016-07-26T10:22:14.702Z,998.81
2016-07-26T10:23:14.718Z,998.8
2016-07-26T10:24:14.737Z,998.82
2016-07-26T10:26:14.767Z,998.86
2016-07-26T10:27:14.986Z,998.88
2016-07-26T10:28:14.807Z,998.9
2016-07-26T10:29:14.828Z,998.91
2016-07-26T10:31:14.853Z,998.92
2016-07-26T10:32:15.276Z,998.92
2016-07-26T10:33:14.897Z,998.91
2016-07-26T10:34:14.920Z,998.91
2016-07-26T10:35:14.917Z,998.86
2016-07-26T10:36:14.935Z,998.85
2016-07-26T10:37:14.974Z,998.91
2016-07-26T10:38:14.971Z,998.81
2016-07-26T10:39:15.001Z,998.8
2016-07-26T10:40:15.005Z,998.82
2016-07-26T10:41:15.020Z,998.77
2016-07-26T10:42:15.032Z,998.77
2016-07-26T10:43:15.050Z,998.77
2016-07-26T10:44:15.273Z,998.78
2016-07-26T10:45:15.083Z,998.8
2016-07-26T10:46:15.101Z,998.8
2016-07-26T10:47:15.119Z,998.76
2016-07-26T10:48:15.135Z,998.81
2016-07-26T10:49:15.150Z,998.8
2016-07-26T10:50:15.370Z,998.8
2016-07-26T10:51:15.187Z,998.83
2016-07-26T10:52:15.201Z,998.82
2016-07-26T10:53:15.221Z,998.82
2016-07-26T10:54:15.248Z,998.8
2016-07-26T10:55:15.275Z,998.78
2016-07-26T10:56:15.269Z,998.81
2016-07-26T10:57:15.288Z,998.77
2016-07-26T10:58:15.303Z,998.84
2016-07-26T10:59:15.320Z,998.74
2016-07-26T11:00:15.335Z,998.73
2016-07-26T11:01:15.583Z,998.77
2016-07-26T11:02:15.371Z,998.75
2016-07-26T11:03:15.386Z,998.77
2016-07-26T11:04:15.421Z,998.76
2016-07-26T11:05:15.623Z,998.78
2016-07-26T11:06:15.437Z,998.72
2016-07-26T11:07:15.451Z,998.7
2016-07-26T11:08:15.469Z,998.69
2016-07-26T11:09:15.494Z,998.66
2016-07-26T11:10:15.502Z,998.65
2016-07-26T11:11:15.719Z,998.66
2016-07-26T11:12:15.541Z,998.6
2016-07-26T11:13:15.556Z,998.71
2016-07-26T11:15:15.595Z,998.71
2016-07-26T11:16:15.605Z,998.7
2016-07-26T11:17:15.618Z,998.71
2016-07-26T11:18:15.633Z,998.75
2016-07-26T11:19:15.652Z,998.69
2016-07-26T11:21:15.683Z,998.74
2016-07-26T11:22:15.697Z,998.76
2016-07-26T11:23:15.715Z,998.76
2016-07-26T11:24:15.753Z,998.75
2016-07-26T11:25:15.747Z,998.73
2016-07-26T11:26:15.783Z,998.72
2016-07-26T11:27:15.786Z,998.71
2016-07-26T11:28:15.795Z,998.7
2016-07-26T11:29:15.814Z,998.76
2016-07-26T11:30:15.830Z,998.77
2016-07-26T11:31:15.842Z,998.83
2016-07-26T11:32:15.861Z,998.84
2016-07-26T11:33:15.877Z,998.79
2016-07-26T11:35:15.912Z,998.79
2016-07-26T11:38:15.959Z,998.81
2016-07-26T11:40:15.991Z,998.84
2016-07-26T11:41:16.006Z,998.84
2016-07-26T11:42:16.027Z,998.83
2016-07-26T11:43:16.038Z,998.82
2016-07-26T11:44:16.056Z,998.8
2016-07-26T11:45:16.071Z,998.79
2016-07-26T11:46:16.090Z,998.78
2016-07-26T11:47:16.102Z,998.83
2016-07-26T11:48:16.143Z,998.8
2016-07-26T11:49:16.139Z,998.8
2016-07-26T11:50:16.153Z,998.8
2016-07-26T11:51:16.167Z,998.77
2016-07-26T11:52:16.189Z,998.75
2016-07-26T11:53:16.403Z,998.77
2016-07-26T11:54:16.215Z,998.75
2016-07-26T11:55:16.304Z,998.73
2016-07-26T11:56:16.250Z,998.74
2016-07-26T11:57:16.268Z,998.66
2016-07-26T11:58:16.283Z,998.67
2016-07-26T11:59:16.298Z,998.63
2016-07-26T12:00:16.319Z,998.59
2016-07-26T12:01:16.335Z,998.6
2016-07-26T12:02:16.350Z,998.61
2016-07-26T12:03:16.361Z,998.6
2016-07-26T12:04:16.581Z,998.6
2016-07-26T12:05:16.394Z,998.62
2016-07-26T12:06:16.410Z,998.6
2016-07-26T12:07:16.426Z,998.63
2016-07-26T12:08:16.441Z,998.65
2016-07-26T12:09:16.460Z,998.66
2016-07-26T12:10:16.480Z,998.65
2016-07-26T12:11:16.691Z,998.69
2016-07-26T12:12:16.516Z,998.68
2016-07-26T12:13:16.528Z,998.72
2016-07-26T12:14:16.746Z,998.71
2016-07-26T12:15:16.655Z,998.71
2016-07-26T12:16:16.566Z,998.71
2016-07-26T12:17:16.988Z,998.73
2016-07-26T12:18:16.598Z,998.68
2016-07-26T12:19:16.615Z,998.71
2016-07-26T12:20:16.628Z,998.73
2016-07-26T12:21:16.986Z,998.75
2016-07-26T12:22:16.661Z,998.71
2016-07-26T12:23:16.677Z,998.76
2016-07-26T12:24:16.701Z,998.81
2016-07-26T12:25:16.738Z,998.82
2016-07-26T12:26:16.723Z,998.84
2016-07-26T12:27:16.736Z,998.86
2016-07-26T12:28:16.752Z,998.92
2016-07-26T12:29:16.768Z,998.86
2016-07-26T12:30:17.190Z,998.87
2016-07-26T12:31:16.797Z,998.9
2016-07-26T12:33:16.829Z,998.87
2016-07-26T12:35:16.859Z,998.89
2016-07-26T12:36:16.898Z,998.93
2016-07-26T12:37:16.901Z,998.88
2016-07-26T12:39:16.934Z,998.92
2016-07-26T12:40:16.938Z,998.88
2016-07-26T12:41:17.416Z,998.92
2016-07-26T12:42:16.966Z,998.92
2016-07-26T12:43:16.982Z,998.89
2016-07-26T12:44:17.002Z,998.91
2016-07-26T12:45:17.010Z,998.91
2016-07-26T12:46:17.029Z,998.9
2016-07-26T12:47:17.108Z,998.85
2016-07-26T12:48:17.059Z,998.88
2016-07-26T12:49:17.304Z,998.88
2016-07-26T12:50:17.095Z,998.86
2016-07-26T12:51:17.112Z,998.81
2016-07-26T12:52:17.121Z,998.81
2016-07-26T12:53:17.143Z,998.78
2016-07-26T12:54:17.153Z,998.78